Time;durP1;ratioP1;P1;durP2;ratioP2;P2;SDS_P1;SDS_P2;PMS_P1;PMS_P2;Temp;Humidity;BMP_temperature;BMP_pressure;BME280_temperature;BME280_humidity;BME280_pressure;Samples;Min_cycle;Max_cycle;Signal;HPM_P1;HPM_P2
2024/03/25 00:00:31;;;;;;;4.97;0.35;;;;;;;6.20;74.59;99862.25;5048234;28;20576;-67
2024/03/25 00:02:57;;;;;;;2.38;0.30;;;;;;;5.95;74.17;99856.59;5046974;28;20435;-66
2024/03/25 00:05:22;;;;;;;0.93;0.10;;;;;;;6.21;73.67;99859.53;5043351;28;20041;-66
2024/03/25 00:07:49;;;;;;;0.30;0.10;;;;;;;6.38;72.32;99859.84;5036677;28;20499;-67
2024/03/25 00:10:15;;;;;;;0.30;0.10;;;;;;;6.41;72.38;99862.19;5041004;28;20080;-67
2024/03/25 00:12:40;;;;;;;0.28;0.00;;;;;;;6.45;71.98;99869.53;5047098;28;20072;-66
2024/03/25 00:15:06;;;;;;;2.78;0.10;;;;;;;6.46;72.36;99867.78;5045899;28;20063;-67
2024/03/25 00:17:31;;;;;;;0.60;0.10;;;;;;;6.38;72.66;99862.44;5048053;28;20033;-66
2024/03/25 00:19:57;;;;;;;0.68;0.03;;;;;;;6.31;73.42;99865.56;5051125;28;20048;-66
2024/03/25 00:22:25;;;;;;;0.57;0.10;;;;;;;6.29;73.66;99857.09;5047532;28;20054;-66
2024/03/25 00:24:51;;;;;;;0.45;0.00;;;;;;;6.26;74.13;99857.38;5044416;28;20071;-67
2024/03/25 00:27:16;;;;;;;1.27;0.00;;;;;;;6.22;74.42;99855.16;5046418;28;20060;-66
2024/03/25 00:29:42;;;;;;;0.68;0.00;;;;;;;6.19;74.79;99861.41;5040767;28;20036;-66
2024/03/25 00:32:08;;;;;;;0.60;0.10;;;;;;;6.19;74.56;99853.66;5038916;28;20544;-66
2024/03/25 00:34:34;;;;;;;0.40;0.10;;;;;;;6.18;74.73;99852.03;5038607;28;20033;-66
2024/03/25 00:37:00;;;;;;;2.28;0.00;;;;;;;6.19;74.21;99853.66;5035637;28;20040;-67
2024/03/25 00:39:26;;;;;;;0.50;0.20;;;;;;;6.14;74.96;99858.44;5031698;28;20095;-67
2024/03/25 00:41:52;;;;;;;0.65;0.10;;;;;;;6.13;75.20;99864.56;5039158;28;20037;-66
2024/03/25 00:44:17;;;;;;;0.25;0.00;;;;;;;6.04;76.19;99862.75;5040644;28;20068;-66
2024/03/25 00:46:43;;;;;;;0.80;0.15;;;;;;;5.89;76.96;99864.84;5041205;28;20029;-66
2024/03/25 00:49:09;;;;;;;1.13;0.10;;;;;;;5.83;77.46;99856.75;5046444;28;20037;-66
2024/03/25 00:51:35;;;;;;;1.45;0.10;;;;;;;5.74;78.70;99865.28;5045161;28;20028;-66
2024/03/25 00:54:01;;;;;;;0.52;0.03;;;;;;;5.64;78.78;99858.31;5040151;28;20026;-66
2024/03/25 00:56:26;;;;;;;0.20;0.00;;;;;;;5.61;79.15;99871.50;5033198;28;20381;-66
2024/03/25 00:58:52;;;;;;;0.45;0.00;;;;;;;5.59;79.33;99870.81;5043242;28;20029;-66
2024/03/25 01:01:17;;;;;;;0.98;0.10;;;;;;;5.57;79.22;99864.94;5035360;28;20065;-66
2024/03/25 01:03:43;;;;;;;0.52;0.10;;;;;;;5.61;78.83;99858.56;5041493;28;20474;-66
2024/03/25 01:06:09;;;;;;;5.38;0.10;;;;;;;5.72;78.37;99860.25;5029917;28;20040;-66
2024/03/25 01:08:34;;;;;;;0.17;0.00;;;;;;;5.79;77.73;99860.53;5045488;28;20032;-66
2024/03/25 01:11:00;;;;;;;0.57;0.00;;;;;;;5.80;77.55;99854.44;5042635;28;20028;-66
2024/03/25 01:13:25;;;;;;;1.48;0.10;;;;;;;5.76;77.99;99855.63;5036070;28;20029;-66
2024/03/25 01:15:51;;;;;;;0.20;0.00;;;;;;;5.68;77.80;99851.91;5030148;28;20033;-66
2024/03/25 01:18:17;;;;;;;2.60;0.08;;;;;;;5.67;77.97;99852.88;5039693;28;20183;-66
2024/03/25 01:20:44;;;;;;;0.30;0.00;;;;;;;5.74;77.41;99865.28;5042939;28;20029;-66
2024/03/25 01:23:09;;;;;;;1.40;0.20;;;;;;;5.73;77.35;99859.28;5040103;28;20032;-66
2024/03/25 01:25:35;;;;;;;0.88;0.10;;;;;;;5.70;77.39;99859.53;5045721;28;20120;-66
2024/03/25 01:28:01;;;;;;;0.43;0.10;;;;;;;5.71;77.26;99861.19;5039306;28;20053;-66
2024/03/25 01:30:28;;;;;;;1.27;0.10;;;;;;;5.61;77.33;99856.00;5042012;28;20112;-66
2024/03/25 01:32:54;;;;;;;0.85;0.10;;;;;;;5.53;78.14;99855.81;5047485;28;20048;-66
2024/03/25 01:35:20;;;;;;;0.85;0.08;;;;;;;5.48;78.56;99862.28;5048624;28;20033;-66
2024/03/25 01:37:45;;;;;;;0.30;0.00;;;;;;;5.41;79.22;99859.38;5050113;28;20120;-66
2024/03/25 01:40:11;;;;;;;0.47;0.00;;;;;;;5.42;78.81;99855.88;5048666;28;20104;-66
2024/03/25 01:42:37;;;;;;;0.55;0.08;;;;;;;5.46;78.31;99857.25;5046546;28;20481;-66
2024/03/25 01:45:03;;;;;;;0.95;0.10;;;;;;;5.51;77.83;99854.28;5037269;28;20033;-66
2024/03/25 01:47:32;;;;;;;1.17;0.10;;;;;;;5.52;77.23;99856.75;5038769;28;20171;-66
2024/03/25 01:49:58;;;;;;;1.88;0.10;;;;;;;5.54;77.19;99861.78;5047897;28;20021;-66
2024/03/25 01:52:25;;;;;;;0.77;0.00;;;;;;;5.53;76.75;99858.38;5036195;28;20032;-66
2024/03/25 01:54:51;;;;;;;0.10;0.00;;;;;;;5.56;76.65;99867.66;5043183;28;20425;-66
2024/03/25 01:57:17;;;;;;;0.68;0.10;;;;;;;5.49;77.42;99872.50;5040720;28;20073;-66
2024/03/25 01:59:42;;;;;;;1.13;0.10;;;;;;;5.45;78.00;99862.53;5044979;28;20067;-66
2024/03/25 02:02:10;;;;;;;0.05;0.00;;;;;;;5.36;77.44;99865.88;5045081;28;20129;-66
2024/03/25 02:04:37;;;;;;;1.17;0.00;;;;;;;5.26;78.49;99856.28;5040174;28;20500;-66
2024/03/25 02:07:03;;;;;;;0.70;0.08;;;;;;;5.15;79.57;99858.97;5035958;28;20039;-66
2024/03/25 02:09:29;;;;;;;0.13;0.00;;;;;;;5.07;80.30;99861.34;5039522;28;20033;-66
2024/03/25 02:11:55;;;;;;;0.65;0.00;;;;;;;5.02;80.60;99862.66;5042377;28;20025;-66
2024/03/25 02:14:21;;;;;;;1.23;0.10;;;;;;;5.05;80.47;99863.22;5046577;28;20442;-66
2024/03/25 02:16:46;;;;;;;0.40;0.10;;;;;;;5.11;80.22;99867.06;5046006;28;20124;-66
2024/03/25 02:19:14;;;;;;;1.27;0.10;;;;;;;5.16;80.62;99860.59;5050061;28;20082;-66
2024/03/25 02:21:40;;;;;;;0.98;0.10;;;;;;;5.19;80.51;99864.69;5048435;28;20037;-66
2024/03/25 02:24:09;;;;;;;0.95;0.10;;;;;;;5.16;80.32;99863.19;5044137;28;20055;-66
2024/03/25 02:26:35;;;;;;;1.58;0.30;;;;;;;5.15;80.23;99869.28;5047013;28;20128;-66
2024/03/25 02:29:01;;;;;;;2.03;0.10;;;;;;;5.10;80.23;99868.00;5045755;28;20107;-66
2024/03/25 02:31:27;;;;;;;0.28;0.10;;;;;;;5.04;80.12;99863.34;5051110;28;20025;-66
2024/03/25 02:33:52;;;;;;;0.43;0.10;;;;;;;5.07;80.15;99863.09;5043377;28;20139;-66
2024/03/25 02:36:18;;;;;;;0.50;0.10;;;;;;;5.08;80.04;99862.16;5048832;28;20120;-66
2024/03/25 02:38:43;;;;;;;0.80;0.10;;;;;;;5.05;80.33;99865.81;5042621;28;20446;-66
2024/03/25 02:41:09;;;;;;;0.40;0.10;;;;;;;5.03;80.73;99865.09;5044502;28;20037;-66
2024/03/25 02:43:34;;;;;;;1.70;0.10;;;;;;;5.02;80.10;99867.81;5039680;28;20420;-66
2024/03/25 02:46:00;;;;;;;0.30;0.10;;;;;;;5.00;80.36;99858.41;5041949;28;20036;-66
2024/03/25 02:48:25;;;;;;;0.25;0.00;;;;;;;4.97;80.42;99861.25;5043144;28;20025;-66
2024/03/25 02:50:51;;;;;;;1.55;0.17;;;;;;;4.92;80.55;99852.22;5044690;28;20029;-66
2024/03/25 02:53:16;;;;;;;1.40;0.10;;;;;;;4.84;80.95;99847.69;5046969;28;20029;-66
2024/03/25 02:55:42;;;;;;;0.52;0.10;;;;;;;4.88;80.24;99849.06;5038809;28;20056;-66
2024/03/25 02:58:07;;;;;;;0.60;0.30;;;;;;;4.91;80.03;99851.41;5043295;28;20056;-66
2024/03/25 03:00:32;;;;;;;0.20;0.00;;;;;;;4.96;79.20;99853.63;5041778;28;20108;-66
2024/03/25 03:02:58;;;;;;;1.70;0.10;;;;;;;4.96;78.67;99848.47;5045315;28;20029;-66
2024/03/25 03:05:23;;;;;;;0.98;0.00;;;;;;;4.94;78.08;99851.16;5044466;28;20037;-65
2024/03/25 03:07:48;;;;;;;2.05;0.05;;;;;;;4.94;77.53;99852.94;5040527;28;20029;-66
2024/03/25 03:10:15;;;;;;;0.57;0.05;;;;;;;4.92;76.75;99854.81;5046867;28;20045;-66
2024/03/25 03:12:41;;;;;;;0.35;0.10;;;;;;;4.94;77.48;99853.75;5044074;28;20464;-66
2024/03/25 03:15:07;;;;;;;1.25;0.03;;;;;;;4.92;77.76;99860.78;5040572;28;20033;-66
2024/03/25 03:17:32;;;;;;;0.15;0.00;;;;;;;4.85;78.63;99861.41;5049139;28;20040;-66
2024/03/25 03:19:58;;;;;;;0.65;0.10;;;;;;;4.76;79.95;99867.28;5046967;28;20376;-66
2024/03/25 03:22:23;;;;;;;0.57;0.10;;;;;;;4.72;80.87;99861.59;5038594;28;20036;-66
2024/03/25 03:24:48;;;;;;;0.75;0.17;;;;;;;4.66;81.79;99873.22;5044718;28;20464;-66
2024/03/25 03:27:14;;;;;;;0.43;0.10;;;;;;;4.63;82.46;99875.22;5049023;28;20409;-66
2024/03/25 03:29:39;;;;;;;0.50;0.10;;;;;;;4.60;82.97;99883.19;5047106;28;20044;-66
2024/03/25 03:32:05;;;;;;;0.50;0.05;;;;;;;4.57;82.81;99888.59;5044219;28;20170;-66
2024/03/25 03:34:30;;;;;;;0.73;0.10;;;;;;;4.54;82.81;99889.66;5048817;28;20061;-66
2024/03/25 03:36:56;;;;;;;2.72;0.10;;;;;;;4.58;82.38;99885.06;5042478;28;20507;-66
2024/03/25 03:39:21;;;;;;;0.38;0.10;;;;;;;4.55;82.70;99880.97;5041619;28;20044;-66
2024/03/25 03:41:46;;;;;;;1.27;0.17;;;;;;;4.59;82.16;99882.38;5045257;28;20029;-66
2024/03/25 03:44:14;;;;;;;0.45;0.10;;;;;;;4.58;81.72;99891.06;5042446;28;20135;-66
2024/03/25 03:46:40;;;;;;;0.35;0.10;;;;;;;4.58;80.96;99887.66;5034761;28;20025;-66
2024/03/25 03:49:05;;;;;;;1.60;0.10;;;;;;;4.64;81.00;99887.16;5046904;28;20522;-66
2024/03/25 03:51:31;;;;;;;0.68;0.10;;;;;;;4.62;81.04;99889.06;5048136;28;20048;-66
2024/03/25 03:53:57;;;;;;;1.23;0.10;;;;;;;4.66;80.53;99893.84;5043874;28;20045;-66
2024/03/25 03:56:22;;;;;;;0.85;0.10;;;;;;;4.72;79.99;99897.72;5043486;28;20041;-66
2024/03/25 03:58:48;;;;;;;0.20;0.00;;;;;;;4.80;79.43;99895.31;5047478;28;20040;-66
2024/03/25 04:01:17;;;;;;;0.50;0.10;;;;;;;4.68;80.02;99901.47;5041064;28;20044;-66
2024/03/25 04:03:43;;;;;;;0.20;0.00;;;;;;;4.65;80.09;99907.69;5041736;28;20049;-66
2024/03/25 04:06:12;;;;;;;2.60;0.15;;;;;;;4.63;79.79;99908.75;5042845;28;20039;-66
2024/03/25 04:08:41;;;;;;;0.35;0.10;;;;;;;4.77;78.24;99902.50;5031045;28;20028;-66
2024/03/25 04:11:07;;;;;;;1.15;0.03;;;;;;;4.82;78.43;99911.50;5033056;28;20047;-67
2024/03/25 04:13:33;;;;;;;0.77;0.10;;;;;;;4.76;78.87;99914.56;5033642;28;20106;-66
2024/03/25 04:16:03;;;;;;;1.65;0.10;;;;;;;4.74;78.46;99925.94;5044923;28;20079;-66
2024/03/25 04:18:30;;;;;;;1.00;0.10;;;;;;;4.79;77.39;99918.66;5043063;28;20021;-66
2024/03/25 04:20:56;;;;;;;0.68;0.00;;;;;;;4.77;77.03;99920.56;5041914;28;20071;-66
2024/03/25 04:23:21;;;;;;;0.65;0.20;;;;;;;4.76;77.62;99927.47;5037560;28;20108;-66
2024/03/25 04:25:47;;;;;;;0.43;0.00;;;;;;;4.69;77.96;99933.25;5037192;28;20029;-66
2024/03/25 04:28:12;;;;;;;0.35;0.10;;;;;;;4.59;79.08;99943.47;5035223;28;20036;-66
2024/03/25 04:30:38;;;;;;;1.30;0.00;;;;;;;4.54;78.96;99943.00;5032164;28;20056;-66
2024/03/25 04:33:03;;;;;;;1.13;0.00;;;;;;;4.51;79.46;99951.81;5038956;28;20158;-66
2024/03/25 04:35:29;;;;;;;0.35;0.10;;;;;;;4.43;79.97;99943.00;5015685;28;20060;-66
2024/03/25 04:37:57;;;;;;;0.60;0.10;;;;;;;4.31;81.39;99943.00;5040787;28;20037;-65
2024/03/25 04:40:22;;;;;;;0.50;0.15;;;;;;;4.20;82.34;99944.78;5041883;28;20028;-66
2024/03/25 04:42:48;;;;;;;0.70;0.20;;;;;;;4.10;82.88;99946.41;5031927;28;20544;-66
2024/03/25 04:45:14;;;;;;;0.60;0.10;;;;;;;4.06;83.83;99950.97;5038779;28;20543;-66
2024/03/25 04:47:39;;;;;;;0.55;0.15;;;;;;;4.04;84.00;99947.69;5045149;28;20496;-66
2024/03/25 04:50:06;;;;;;;0.73;0.17;;;;;;;4.03;84.51;99951.22;5039981;28;20058;-66
2024/03/25 04:52:31;;;;;;;1.05;0.20;;;;;;;4.02;84.79;99949.56;5036147;28;20443;-65
2024/03/25 04:54:57;;;;;;;1.33;0.10;;;;;;;4.05;85.06;99951.09;5035633;28;20211;-65
2024/03/25 04:57:23;;;;;;;1.23;0.20;;;;;;;4.06;84.21;99950.16;5032116;28;20037;-66
2024/03/25 04:59:48;;;;;;;1.00;0.05;;;;;;;4.12;83.19;99957.44;5044295;28;20067;-66
2024/03/25 05:02:14;;;;;;;5.78;0.10;;;;;;;4.18;81.77;99950.06;5034764;28;20056;-66
2024/03/25 05:04:39;;;;;;;6.80;0.10;;;;;;;4.27;80.21;99958.81;5041946;28;20035;-65
2024/03/25 05:07:05;;;;;;;0.68;0.10;;;;;;;4.32;79.54;99960.13;5042510;28;20025;-66
2024/03/25 05:09:30;;;;;;;0.70;0.10;;;;;;;4.38;79.46;99968.34;5039119;28;20032;-66
2024/03/25 05:11:55;;;;;;;0.95;0.10;;;;;;;4.37;80.30;99970.09;5045213;28;20035;-66
2024/03/25 05:14:21;;;;;;;0.22;0.00;;;;;;;4.34;80.21;99971.13;5044908;28;20033;-66
2024/03/25 05:16:46;;;;;;;0.32;0.03;;;;;;;4.30;80.94;99980.03;5048005;28;20480;-67
2024/03/25 05:19:12;;;;;;;0.40;0.10;;;;;;;4.22;81.88;99977.25;5044675;28;20484;-65
2024/03/25 05:21:37;;;;;;;0.57;0.10;;;;;;;4.17;82.27;99975.97;5041648;28;20043;-66
2024/03/25 05:24:03;;;;;;;0.43;0.10;;;;;;;4.11;82.80;99981.56;5046497;28;20040;-66
2024/03/25 05:26:28;;;;;;;2.28;0.10;;;;;;;4.17;81.73;99978.53;5043019;28;20481;-66
2024/03/25 05:28:55;;;;;;;3.20;0.10;;;;;;;4.19;81.69;99985.22;5044571;28;20033;-66
2024/03/25 05:31:20;;;;;;;2.28;0.00;;;;;;;4.21;81.18;99988.50;5036185;28;20033;-65
2024/03/25 05:33:46;;;;;;;1.08;0.03;;;;;;;4.24;81.44;99985.69;5042050;28;20384;-65
2024/03/25 05:36:11;;;;;;;1.38;0.10;;;;;;;4.21;82.28;99991.09;5044077;28;20044;-65
2024/03/25 05:38:37;;;;;;;0.95;0.10;;;;;;;4.15;82.66;99993.31;5045212;28;20028;-66
2024/03/25 05:41:02;;;;;;;0.63;0.10;;;;;;;4.17;82.62;99994.00;5042115;28;20431;-65
2024/03/25 05:43:27;;;;;;;0.30;0.08;;;;;;;4.21;81.28;99991.09;5039742;28;20036;-66
2024/03/25 05:45:54;;;;;;;1.17;0.10;;;;;;;4.28;80.21;99997.41;5044783;28;20520;-66
2024/03/25 05:48:24;;;;;;;4.30;0.20;;;;;;;4.36;79.60;99999.41;5043647;28;20106;-66
2024/03/25 05:50:59;;;;;;;3.10;0.20;;;;;;;4.41;78.88;99986.97;5042679;28;20107;-66
2024/03/25 05:53:27;;;;;;;1.75;0.40;;;;;;;4.49;79.12;99989.78;5043329;28;20036;-66
2024/03/25 05:55:52;;;;;;;5.13;0.20;;;;;;;4.58;78.77;99989.09;5046867;28;20124;-66
2024/03/25 05:58:17;;;;;;;5.38;0.20;;;;;;;4.59;78.68;99995.06;5039260;28;20124;-66
2024/03/25 06:00:43;;;;;;;2.67;0.20;;;;;;;4.62;79.72;99997.44;5036819;28;20064;-66
2024/03/25 06:03:08;;;;;;;0.35;0.10;;;;;;;4.61;79.75;99995.78;5039665;28;20029;-66
2024/03/25 06:05:34;;;;;;;3.67;0.13;;;;;;;4.64;80.19;99995.53;5044137;28;20025;-65
2024/03/25 06:07:59;;;;;;;7.97;0.25;;;;;;;4.61;80.79;99998.38;5047687;28;20472;-66
2024/03/25 06:10:24;;;;;;;1.65;0.10;;;;;;;4.65;80.72;99997.19;5046683;28;20040;-66
2024/03/25 06:12:50;;;;;;;2.15;0.30;;;;;;;4.73;79.67;100001.72;5041493;28;20034;-66
2024/03/25 06:15:15;;;;;;;0.15;0.10;;;;;;;4.84;79.93;100001.72;5040175;28;20552;-66
2024/03/25 06:17:41;;;;;;;0.85;0.05;;;;;;;4.87;78.54;99999.72;5049711;28;20066;-66
2024/03/25 06:20:07;;;;;;;1.23;0.20;;;;;;;4.92;77.86;100002.78;5038934;28;20025;-65
2024/03/25 06:22:33;;;;;;;0.82;0.20;;;;;;;5.02;76.54;100005.47;5043621;28;20055;-66
2024/03/25 06:24:58;;;;;;;3.47;0.22;;;;;;;5.13;76.43;100008.03;5041023;28;20022;-66
2024/03/25 06:27:24;;;;;;;3.53;0.30;;;;;;;5.21;75.23;100002.25;5045949;28;20130;-66
2024/03/25 06:34:13;;;;;;;1.80;0.10;;;;;;;5.35;75.46;100007.13;5047033;28;20037;-66
2024/03/25 06:35:18;;;;;;;0.75;0.20;;;;;;;5.72;73.62;100011.91;5048799;28;20047;-66
2024/03/25 06:37:44;;;;;;;3.15;0.10;;;;;;;5.84;71.84;100005.75;5042330;28;20025;-66
2024/03/25 06:40:10;;;;;;;0.50;0.20;;;;;;;5.98;72.29;100005.50;5037476;28;20060;-66
2024/03/25 06:42:35;;;;;;;2.55;0.60;;;;;;;6.07;71.08;100007.31;5039666;28;20488;-65
2024/03/25 06:45:01;;;;;;;5.00;0.10;;;;;;;6.24;71.66;100011.91;5044324;28;20040;-66
2024/03/25 06:47:26;;;;;;;2.53;0.10;;;;;;;6.39;71.87;100016.75;5049953;28;20039;-65
2024/03/25 06:49:52;;;;;;;3.20;0.20;;;;;;;6.58;72.86;100019.44;5051940;28;20025;-65
2024/03/25 06:52:17;;;;;;;2.53;0.13;;;;;;;6.68;71.21;100011.69;5050321;28;20374;-66
2024/03/25 06:54:42;;;;;;;0.32;0.10;;;;;;;6.73;71.36;100006.94;5047183;28;20423;-66
2024/03/25 06:57:08;;;;;;;4.60;0.57;;;;;;;6.90;71.15;100006.31;5044694;28;20043;-66
2024/03/25 06:59:36;;;;;;;0.30;0.08;;;;;;;6.99;69.93;100015.88;5043741;28;20036;-66
2024/03/25 07:02:01;;;;;;;0.43;0.08;;;;;;;7.07;69.00;100017.81;5036663;28;20029;-66
2024/03/25 07:04:27;;;;;;;1.30;0.20;;;;;;;7.04;69.50;100018.91;5044750;28;20033;-65
2024/03/25 07:06:52;;;;;;;0.30;0.10;;;;;;;7.11;70.70;100019.16;5051712;28;20039;-65
2024/03/25 07:09:17;;;;;;;0.30;0.10;;;;;;;7.19;69.53;100021.91;5047952;28;20037;-69
2024/03/25 07:11:46;;;;;;;2.65;0.10;;;;;;;7.36;69.28;100020.44;5039305;28;20396;-69
2024/03/25 07:14:12;;;;;;;0.52;0.10;;;;;;;7.53;68.98;100023.22;5040094;28;20033;-67
2024/03/25 07:16:37;;;;;;;0.55;0.10;;;;;;;7.72;69.24;100027.56;5042869;28;20116;-67
2024/03/25 07:19:03;;;;;;;1.25;0.20;;;;;;;7.80;67.49;100022.50;5033987;28;20068;-66
2024/03/25 07:21:28;;;;;;;0.65;0.10;;;;;;;7.98;67.81;100020.88;5040534;28;20028;-66
2024/03/25 07:23:54;;;;;;;0.32;0.10;;;;;;;8.31;67.60;100026.53;5040241;28;20022;-67
2024/03/25 07:26:19;;;;;;;1.10;0.10;;;;;;;8.32;66.29;100026.41;5047768;28;20579;-66
2024/03/25 07:28:44;;;;;;;6.00;0.10;;;;;;;8.36;65.85;100033.94;5041468;28;20033;-66
2024/03/25 07:31:10;;;;;;;0.10;0.00;;;;;;;8.45;65.44;100036.50;5039813;28;20159;-66
2024/03/25 07:33:35;;;;;;;0.85;0.10;;;;;;;8.61;65.02;100028.09;5040726;28;20109;-66
2024/03/25 07:36:01;;;;;;;0.98;0.10;;;;;;;8.85;66.09;100031.00;5043501;28;20087;-67
2024/03/25 07:38:26;;;;;;;0.40;0.20;;;;;;;8.84;65.21;100039.75;5042009;28;20048;-66
2024/03/25 07:40:52;;;;;;;0.63;0.20;;;;;;;8.84;65.10;100033.75;5036650;28;20026;-67
2024/03/25 07:43:19;;;;;;;2.75;0.10;;;;;;;8.88;64.80;100035.91;5040207;28;20558;-66
2024/03/25 07:45:44;;;;;;;2.50;0.10;;;;;;;8.95;64.60;100026.59;5044933;28;20090;-67
2024/03/25 07:48:10;;;;;;;0.80;0.10;;;;;;;9.22;64.27;100024.91;5039509;28;20035;-67
2024/03/25 07:50:35;;;;;;;1.25;0.10;;;;;;;9.34;62.94;100018.56;5043548;28;20021;-66
2024/03/25 07:53:01;;;;;;;0.57;0.00;;;;;;;9.49;63.50;100013.63;5043226;28;20026;-67
2024/03/25 07:55:26;;;;;;;1.33;0.10;;;;;;;9.71;61.58;100018.41;5046417;28;20063;-67
2024/03/25 07:57:52;;;;;;;1.27;0.05;;;;;;;9.96;60.51;100022.00;5032931;28;20030;-66
2024/03/25 08:00:17;;;;;;;0.38;0.08;;;;;;;10.07;59.12;100016.56;5043239;28;20040;-66
2024/03/25 08:02:43;;;;;;;0.82;0.10;;;;;;;10.28;59.91;100019.66;5043485;28;20396;-67
2024/03/25 08:05:08;;;;;;;2.75;0.10;;;;;;;10.62;60.62;100016.25;5042402;28;20029;-67
2024/03/25 08:07:34;;;;;;;0.60;0.10;;;;;;;10.73;59.74;100016.00;5043101;28;20033;-67
2024/03/25 08:09:59;;;;;;;1.27;0.10;;;;;;;10.86;59.01;100015.56;5043834;28;20029;-67
2024/03/25 08:12:25;;;;;;;0.43;0.10;;;;;;;11.19;57.72;100000.81;5047623;28;20531;-67
2024/03/25 08:14:50;;;;;;;0.45;0.10;;;;;;;11.48;57.79;100011.63;5044459;28;20488;-67
2024/03/25 08:17:15;;;;;;;0.20;0.10;;;;;;;11.59;58.84;100010.50;5049183;28;20036;-67
2024/03/25 08:19:41;;;;;;;1.90;0.08;;;;;;;11.61;54.69;100009.34;5044201;28;20025;-67
2024/03/25 08:22:06;;;;;;;1.60;0.10;;;;;;;11.91;55.87;100007.91;5045206;28;20045;-67
2024/03/25 08:24:31;;;;;;;0.52;0.10;;;;;;;11.99;55.11;100008.91;5048583;28;20033;-67
2024/03/25 08:26:57;;;;;;;0.80;0.00;;;;;;;12.33;53.50;100000.81;5049987;28;20025;-68
2024/03/25 08:29:23;;;;;;;0.65;0.10;;;;;;;12.52;53.30;99995.22;5048646;28;20029;-67
2024/03/25 08:31:48;;;;;;;0.55;0.00;;;;;;;12.77;54.55;99990.72;5049234;28;20097;-67
2024/03/25 08:34:13;;;;;;;0.38;0.10;;;;;;;12.74;53.40;99994.50;5046267;28;20052;-68
2024/03/25 08:36:39;;;;;;;2.47;0.10;;;;;;;13.11;57.01;99998.25;5049710;28;20033;-68
2024/03/25 08:39:05;;;;;;;0.63;0.00;;;;;;;13.12;54.04;100002.50;5045712;28;20462;-68
2024/03/25 08:41:30;;;;;;;2.30;0.00;;;;;;;13.40;55.39;99989.75;5044279;28;20024;-68
2024/03/25 08:43:56;;;;;;;1.33;0.00;;;;;;;13.58;55.71;99996.31;5046928;28;20071;-68
2024/03/25 08:46:21;;;;;;;1.95;0.00;;;;;;;13.69;55.67;99983.81;5046332;28;20025;-68
2024/03/25 08:48:46;;;;;;;0.45;0.05;;;;;;;14.12;53.29;99983.09;5044734;28;20397;-67
2024/03/25 08:51:12;;;;;;;0.03;0.00;;;;;;;14.55;55.10;99996.41;5043444;28;20140;-68
2024/03/25 08:53:37;;;;;;;1.13;0.20;;;;;;;13.84;48.80;99982.03;5048212;28;20032;-68
2024/03/25 08:56:03;;;;;;;0.40;0.00;;;;;;;14.23;55.78;99982.63;5045317;28;20452;-68
2024/03/25 08:58:28;;;;;;;0.28;0.00;;;;;;;14.70;55.03;99981.47;5043863;28;20026;-68
2024/03/25 09:00:54;;;;;;;0.00;0.00;;;;;;;14.57;53.14;99984.75;5044499;28;20396;-68
2024/03/25 09:03:19;;;;;;;0.00;0.00;;;;;;;14.24;52.13;99980.81;5040684;28;20037;-68
2024/03/25 09:05:45;;;;;;;0.10;0.00;;;;;;;14.57;55.20;99989.19;5048631;28;20043;-68
2024/03/25 09:08:11;;;;;;;0.00;0.00;;;;;;;14.94;55.88;99985.59;5046637;28;20055;-68
2024/03/25 09:13:23;;;;;;;0.00;0.00;;;;;;;14.55;57.99;99993.78;5046706;28;20068;-68
2024/03/25 09:15:48;;;;;;;1.75;0.00;;;;;;;14.73;56.47;99986.34;5048566;28;20116;-68
2024/03/25 09:18:14;;;;;;;0.30;0.00;;;;;;;14.48;58.77;99985.03;5046748;28;20399;-68
2024/03/25 09:20:39;;;;;;;0.73;0.00;;;;;;;14.11;55.94;99984.09;5044489;28;20036;-68
2024/03/25 09:23:04;;;;;;;0.20;0.00;;;;;;;13.83;58.37;99981.22;5044083;28;20449;-68
2024/03/25 09:25:30;;;;;;;0.00;0.00;;;;;;;13.55;57.70;99982.78;5047481;28;20047;-68
2024/03/25 09:27:55;;;;;;;0.10;0.00;;;;;;;13.30;58.14;99979.50;5044488;28;20039;-68
2024/03/25 09:30:21;;;;;;;0.30;0.00;;;;;;;13.09;57.55;99971.44;5046677;28;20061;-68
2024/03/25 09:32:47;;;;;;;0.15;0.00;;;;;;;12.97;56.91;99973.63;5043520;28;20045;-68
2024/03/25 09:35:13;;;;;;;0.03;0.00;;;;;;;12.91;56.94;99969.09;5046748;28;20087;-68
2024/03/25 09:37:39;;;;;;;0.22;0.00;;;;;;;12.89;57.11;99965.81;5046790;28;20481;-68
2024/03/25 09:40:05;;;;;;;0.00;0.00;;;;;;;12.92;56.96;99968.09;5046898;28;20048;-68
2024/03/25 09:42:42;;;;;;;1.40;0.00;;;;;;;12.84;56.50;99962.91;5047744;28;20037;-68
2024/03/25 09:45:08;;;;;;;0.00;0.00;;;;;;;12.75;56.68;99970.00;5043001;28;20037;-68
2024/03/25 09:47:33;;;;;;;0.35;0.00;;;;;;;12.64;55.13;99972.97;5051635;28;20032;-68
2024/03/25 09:50:02;;;;;;;0.13;0.00;;;;;;;12.54;56.95;99970.56;5044970;28;20388;-68
2024/03/25 09:52:27;;;;;;;0.05;0.00;;;;;;;12.42;56.36;99969.28;5042578;28;20021;-68
2024/03/25 09:54:53;;;;;;;0.00;0.00;;;;;;;12.34;56.04;99971.94;5051667;28;20067;-68
2024/03/25 09:57:19;;;;;;;0.00;0.00;;;;;;;12.32;54.05;99967.84;5049371;28;21806;-68
2024/03/25 09:59:46;;;;;;;0.10;0.00;;;;;;;12.30;55.04;99974.06;5048686;28;20506;-68
2024/03/25 10:02:14;;;;;;;0.52;0.00;;;;;;;12.29;53.94;99969.00;5049246;28;20095;-68
2024/03/25 10:04:46;;;;;;;0.00;0.00;;;;;;;12.22;49.59;99963.66;5048600;28;20087;-68
2024/03/25 10:07:21;;;;;;;0.00;0.00;;;;;;;12.35;50.59;99968.34;5050900;28;20037;-68
2024/03/25 10:09:47;;;;;;;0.00;0.00;;;;;;;12.32;51.35;99978.31;5051178;28;20498;-68
2024/03/25 10:12:13;;;;;;;0.03;0.00;;;;;;;12.38;52.41;99972.41;5050313;28;20033;-68
2024/03/25 10:14:40;;;;;;;0.10;0.00;;;;;;;12.49;51.31;99964.22;5051146;28;20029;-68
2024/03/25 10:17:05;;;;;;;0.00;0.00;;;;;;;12.64;51.51;99970.38;5050237;28;20040;-68
2024/03/25 10:19:31;;;;;;;0.00;0.00;;;;;;;12.64;51.77;99965.16;5051851;28;20029;-68
2024/03/25 10:22:07;;;;;;;0.13;0.00;;;;;;;12.60;49.65;99974.31;5051444;28;20051;-68
2024/03/25 10:24:44;;;;;;;0.43;0.00;;;;;;;12.51;46.34;99968.28;5048908;28;20388;-68
2024/03/25 10:27:23;;;;;;;0.10;0.00;;;;;;;12.41;47.88;99972.06;5049501;28;20064;-68
2024/03/25 10:29:52;;;;;;;0.00;0.00;;;;;;;12.40;47.07;99962.59;5050568;28;20033;-68
2024/03/25 10:32:17;;;;;;;0.00;0.00;;;;;;;12.38;49.52;99961.97;5054250;28;20033;-68
2024/03/25 10:34:43;;;;;;;0.00;0.00;;;;;;;12.42;47.77;99958.03;5051997;28;20036;-68
2024/03/25 10:37:10;;;;;;;0.10;0.00;;;;;;;12.44;46.14;99962.09;5047706;28;20119;-68
2024/03/25 10:39:43;;;;;;;1.00;0.00;;;;;;;12.42;47.60;99952.81;5047228;28;20498;-68
2024/03/25 10:42:13;;;;;;;0.60;0.25;;;;;;;12.47;46.37;99953.13;5050605;28;20434;-68
2024/03/25 10:44:39;;;;;;;0.25;0.00;;;;;;;12.61;43.81;99949.81;5048913;28;20043;-68
2024/03/25 10:47:06;;;;;;;0.10;0.00;;;;;;;12.60;46.02;99953.41;5047534;28;20120;-68
2024/03/25 10:49:58;;;;;;;0.00;0.00;;;;;;;12.52;45.11;99949.00;5050368;28;20098;-68
2024/03/25 10:52:26;;;;;;;0.15;0.00;;;;;;;12.59;39.90;99944.75;5050771;28;20405;-68
2024/03/25 10:54:54;;;;;;;0.00;0.00;;;;;;;12.73;46.54;99943.22;5051143;28;20124;-68
2024/03/25 10:57:20;;;;;;;1.85;0.00;;;;;;;12.70;45.43;99947.97;5053215;28;20065;-69
2024/03/25 10:59:46;;;;;;;0.10;0.00;;;;;;;12.70;46.61;99946.16;5049801;28;20112;-69
2024/03/25 11:02:12;;;;;;;0.05;0.00;;;;;;;12.69;49.87;99948.97;5050342;28;20032;-69
2024/03/25 11:04:38;;;;;;;0.38;0.10;;;;;;;12.74;51.10;99946.66;5051367;28;20086;-70
2024/03/25 11:07:13;;;;;;;1.35;0.10;;;;;;;12.71;47.04;99945.19;5050481;28;20036;-70
2024/03/25 11:09:42;;;;;;;1.85;0.00;;;;;;;12.75;49.86;99949.09;5049855;28;20135;-69
2024/03/25 11:12:12;;;;;;;0.50;0.10;;;;;;;12.65;51.78;99938.03;5050456;28;20052;-69
2024/03/25 11:14:38;;;;;;;0.10;0.00;;;;;;;12.68;52.08;99940.31;5050888;28;20029;-69
2024/03/25 11:17:15;;;;;;;0.35;0.00;;;;;;;12.66;51.42;99941.44;5048367;28;20452;-68
2024/03/25 11:19:41;;;;;;;0.43;0.00;;;;;;;12.77;53.28;99930.59;5044930;28;20493;-68
2024/03/25 11:22:08;;;;;;;0.15;0.00;;;;;;;13.01;53.09;99933.06;5045285;28;20040;-69
2024/03/25 11:24:36;;;;;;;0.25;0.00;;;;;;;13.10;51.18;99929.44;5045590;28;20079;-69
2024/03/25 11:27:03;;;;;;;2.08;0.03;;;;;;;13.12;52.55;99931.88;5040864;28;20051;-69
2024/03/25 11:29:30;;;;;;;0.20;0.00;;;;;;;13.14;52.65;99922.88;5042023;28;20064;-69
2024/03/25 11:31:57;;;;;;;2.20;0.00;;;;;;;13.07;52.61;99934.19;5036903;28;20025;-69
2024/03/25 11:34:23;;;;;;;1.73;0.00;;;;;;;13.21;52.71;99928.25;5040946;28;20049;-69
2024/03/25 11:36:49;;;;;;;0.10;0.00;;;;;;;13.13;49.70;99926.47;5041457;28;20091;-69